ADDS METAR Data INFO
IDs: Format: Raw Decoded Include TAF

Data at: 1004 UTC 12 Dec 2017

KULM 120955Z AUTO 31012KT 10SM CLR M12/M16 A3028 RMK AO2
KULM 120935Z AUTO 31010KT 10SM CLR M12/M16 A3028 RMK AO2
KULM 120915Z AUTO 31011KT 10SM CLR M12/M16 A3028 RMK AO2
KULM 120855Z AUTO 31009KT 10SM CLR M12/M16 A3029 RMK AO2
KULM 120835Z AUTO 31012KT 10SM CLR M12/M16 A3028 RMK AO2
KULM 120815Z AUTO 31012KT 10SM CLR M12/M16 A3028 RMK AO2
KULM 120755Z AUTO 31013KT 10SM CLR M12/M16 A3028 RMK AO2
KULM 120735Z AUTO 31013KT 10SM CLR M12/M16 A3029 RMK AO2
KULM 120715Z AUTO 31012G17KT 10SM CLR M12/M15 A3028 RMK AO2
KULM 120655Z AUTO 31013G16KT 10SM CLR M12/M15 A3028 RMK AO2
KULM 120635Z AUTO 31012G16KT 10SM CLR M12/M15 A3028 RMK AO2
KULM 120615Z AUTO 31012KT 10SM CLR M12/M15 A3028 RMK AO2
KULM 120555Z AUTO 32014KT 10SM CLR M12/M14 A3027 RMK AO2
KULM 120535Z AUTO 32016G20KT 10SM CLR M11/M14 A3027 RMK AO2
KULM 120515Z AUTO 32015G20KT 10SM CLR M11/M14 A3027 RMK AO2
KULM 120455Z AUTO 32015G21KT 10SM CLR M11/M14 A3027 RMK AO2
KULM 120435Z AUTO 32019KT 10SM CLR M11/M13 A3026 RMK AO2
KULM 120415Z AUTO 32016G20KT 10SM CLR M11/M13 A3026 RMK AO2
KULM 120355Z AUTO 32016KT 10SM CLR M10/M13 A3026 RMK AO2
KULM 120335Z AUTO 32016G20KT 10SM CLR M10/M13 A3025 RMK AO2
KULM 120315Z AUTO 32016G21KT 10SM CLR M09/M13 A3025 RMK AO2
KULM 120255Z AUTO 32019G25KT 10SM CLR M09/M12 A3025 RMK AO2
KULM 120235Z AUTO 32018G22KT 10SM CLR M09/M12 A3025 RMK AO2
KULM 120215Z AUTO 32017G22KT 10SM CLR M08/M12 A3023 RMK AO2
KULM 120155Z AUTO 32018G23KT 10SM CLR M08/M11 A3022 RMK AO2
KULM 120135Z AUTO 32018G26KT 10SM CLR M07/M10 A3021 RMK AO2
KULM 120115Z AUTO 33016G24KT 10SM CLR M06/M09 A3019 RMK AO2
KULM 120055Z AUTO 32021G27KT 10SM SCT020 SCT029 M06/M09 A3019 RMK AO2
KULM 120035Z AUTO 32020G24KT 10SM SCT020 BKN029 M05/M08 A3017 RMK AO2
KULM 120015Z AUTO 33020G27KT 10SM BKN027 M04/M09 A3015 RMK AO2
KULM 112355Z AUTO 33021G28KT 10SM OVC027 M04/M09 A3013 RMK AO2
KULM 112335Z AUTO 33023G27KT 10SM OVC027 M03/M08 A3012 RMK AO2
KULM 112315Z AUTO 33022G29KT 10SM OVC027 M03/M08 A3010 RMK AO2
KULM 112255Z AUTO 33023G31KT 10SM OVC027 M03/M08 A3009 RMK AO2
KULM 112235Z AUTO 33021G30KT 10SM SCT022 OVC027 M02/M07 A3007 RMK AO2
KULM 112215Z AUTO 32020G27KT 10SM SCT022 OVC029 M02/M05 A3006 RMK AO2
KULM 112155Z AUTO 32022G28KT 10SM OVC027 M02/M05 A3004 RMK AO2
KULM 112135Z AUTO 33020G27KT 10SM SCT016 BKN025 OVC030 M01/M04 A3003 RMK AO2
KULM 112115Z AUTO 32019G26KT 10SM BKN018 OVC027 M01/M04 A3001 RMK AO2
KULM 112055Z AUTO 33019G28KT 10SM BKN018 OVC025 00/M03 A3000 RMK AO2
KULM 112035Z AUTO 33019G32KT 10SM BKN018 OVC025 01/M03 A2997 RMK AO2
KULM 112015Z AUTO 33017G31KT 10SM OVC020 01/M02 A2995 RMK AO2
KULM 111955Z AUTO 33021G25KT 10SM OVC022 02/M02 A2993 RMK AO2
KULM 111935Z AUTO 33019G26KT 10SM OVC020 02/M02 A2992 RMK AO2
KULM 111855Z AUTO 33017G21KT 10SM BKN017 OVC025 02/M01 A2988 RMK AO2
KULM 111835Z AUTO 32019KT 10SM OVC017 02/M01 A2987 RMK AO2
KULM 111815Z AUTO 32015G24KT 10SM OVC021 02/M01 A2986 RMK AO2
KULM 111755Z AUTO 33019G24KT 10SM OVC017 02/M01 A2985 RMK AO2
KULM 111735Z AUTO 33018G24KT 10SM OVC015 02/00 A2984 RMK AO2
KULM 111715Z AUTO 32016G20KT 10SM -RA OVC013 02/00 A2983 RMK AO2
KULM 111655Z AUTO 32017G25KT 7SM -RA SCT013 BKN021 OVC035 02/M01 A2982 RMK AO2
KULM 111635Z AUTO 32017G22KT 10SM SCT015 OVC037 03/M01 A2980 RMK AO2
KULM 111615Z AUTO 32016G24KT 10SM SCT015 BKN041 BKN055 03/M01 A2979 RMK AO2
KULM 111555Z AUTO 32018G25KT 10SM SCT075 SCT095 03/M01 A2978 RMK AO2
KULM 111535Z AUTO 32019G24KT 10SM BKN085 02/M01 A2977 RMK AO2
KULM 111515Z AUTO 32021G26KT 10SM OVC085 02/M01 A2975 RMK AO2
KULM 111455Z AUTO 32021G26KT 10SM SCT070 BKN085 03/M01 A2974 RMK AO2
KULM 111435Z AUTO 31016G23KT 10SM SCT070 OVC095 03/M02 A2973 RMK AO2
KULM 111415Z AUTO 31014G20KT 10SM SCT075 BKN095 03/M02 A2973 RMK AO2
KULM 111355Z AUTO 31013G19KT 10SM SCT095 02/M03 A2972 RMK AO2
KULM 111335Z AUTO 29008KT 10SM CLR 01/M03 A2971 RMK AO2
KULM 111315Z AUTO 28006KT 10SM SCT085 120 M01/M03 A2971 RMK AO2
KULM 111255Z AUTO 26005KT 10SM SCT050 SCT065 BKN090 01/M03 A2971 RMK AO2
KULM 111235Z AUTO 24003KT 10SM SCT042 BKN055 BKN065 01/M03 A2972 RMK AO2
KULM 111215Z AUTO 24003KT 10SM SCT044 BKN065 OVC075 00/M03 A2972 RMK AO2
KULM 111155Z AUTO 00000KT 10SM -DZ OVC055 01/M03 A2971 RMK AO2
KULM 111135Z AUTO 21004KT 10SM BKN055 OVC085 00/M03 A2972 RMK AO2
KULM 111115Z AUTO 21005KT 10SM BKN085 M01/M03 A2973 RMK AO2
KULM 111055Z AUTO 00000KT 10SM CLR M01/M03 A2974 RMK AO2
KULM 111035Z AUTO 21003KT 10SM CLR 00/M03 A2974 RMK AO2
KULM 111015Z AUTO 21004KT 10SM CLR 00/M03 A2975 RMK AO2
KULM 110955Z AUTO 20005KT 10SM CLR 00/M03 A2977 RMK AO2
KULM 110935Z AUTO 21006KT 10SM SCT110 01/M03 A2978 RMK AO2
KULM 110915Z AUTO 21006KT 10SM SCT120 01/M03 A2980 RMK AO2
KULM 110855Z AUTO 20006KT 10SM SCT120 01/M03 A2980 RMK AO2
KULM 110835Z AUTO 21007KT 10SM CLR 00/M03 A2982 RMK AO2
KULM 110815Z AUTO 20008KT 10SM SCT120 00/M03 A2983 RMK AO2
KULM 110755Z AUTO 20007KT 10SM BKN120 M01/M03 A2984 RMK AO2
KULM 110735Z AUTO 19007KT 10SM BKN120 M01/M03 A2985 RMK AO2
KULM 110715Z AUTO 19006KT 10SM SCT065 120 00/M03 A2986 RMK AO2
KULM 110655Z AUTO 17008KT 10SM BKN065 BKN110 00/M03 A2987 RMK AO2
KULM 110635Z AUTO 19006KT 10SM SCT065 SCT075 BKN085 M01/M03 A2988 RMK AO2
KULM 110615Z AUTO 18007KT 10SM SCT080 BKN110 M01/M03 A2989 RMK AO2
KULM 110555Z AUTO 19006KT 10SM SCT080 OVC100 M01/M03 A2991 RMK AO2
KULM 110535Z AUTO 19006KT 10SM OVC100 M01/M03 A2993 RMK AO2
KULM 110515Z AUTO 19005KT 10SM SCT065 OVC100 M01/M03 A2994 RMK AO2
KULM 110455Z AUTO 19004KT 10SM SCT065 BKN070 OVC080 M01/M03 A2996 RMK AO2
KULM 110435Z AUTO 17003KT 10SM BKN075 BKN090 M01/M04 A2996 RMK AO2
KULM 110415Z AUTO 00000KT 10SM SCT075 SCT090 BKN110 M01/M04 A2997 RMK AO2
KULM 110355Z AUTO 21003KT 10SM SCT090 BKN110 M01/M04 A2998 RMK AO2
KULM 110335Z AUTO 00000KT 10SM BKN090 120 M01/M04 A2998 RMK AO2
KULM 110315Z AUTO 17003KT 10SM BKN090 120 M01/M04 A2997 RMK AO2
KULM 110255Z AUTO 19004KT 10SM OVC090 M01/M04 A2999 RMK AO2
KULM 110235Z AUTO 20003KT 10SM OVC090 M01/M04 A3000 RMK AO2
KULM 110215Z AUTO 00000KT 10SM OVC090 M01/M03 A3001 RMK AO2
KULM 110155Z AUTO 00000KT 10SM OVC090 M01/M04 A3002 RMK AO2
KULM 110135Z AUTO 00000KT 10SM OVC090 M01/M04 A3002 RMK AO2
KULM 110115Z AUTO 00000KT 10SM OVC100 M01/M04 A3003 RMK AO2
KULM 110055Z AUTO 29003KT 10SM OVC100 M01/M04 A3004 RMK AO2
KULM 110035Z AUTO 00000KT 10SM OVC100 M01/M04 A3004 RMK AO2
KULM 110015Z AUTO 29003KT 10SM OVC100 M01/M04 A3005 RMK AO2
KULM 102355Z AUTO 28004KT 10SM OVC100 M01/M04 A3006 RMK AO2
KULM 102335Z AUTO 00000KT 10SM OVC110 00/M04 A3005 RMK AO2
KULM 102315Z AUTO 28003KT 10SM OVC110 00/M04 A3006 RMK AO2
KULM 102255Z AUTO 32004KT 10SM OVC110 00/M04 A3005 RMK AO2
KULM 102235Z AUTO 31006KT 10SM BKN110 01/M05 A3004 RMK AO2
KULM 102215Z AUTO 32007KT 10SM BKN120 01/M05 A3004 RMK AO2